createdAt,value
2024-01-15T00:00:20.127Z,8.24
2024-01-15T00:02:46.543Z,8.38
2024-01-15T00:05:12.972Z,8.41
2024-01-15T00:07:39.369Z,8.46
2024-01-15T00:10:06.098Z,8.46
2024-01-15T00:12:32.523Z,8.44
2024-01-15T00:14:58.969Z,8.45
2024-01-15T00:17:25.408Z,8.40
2024-01-15T00:19:51.997Z,8.02
2024-01-15T00:22:19.056Z,8.05
2024-01-15T00:24:45.546Z,7.87
2024-01-15T00:27:11.988Z,7.85
2024-01-15T00:29:38.665Z,7.75
2024-01-15T00:32:07.741Z,7.88
2024-01-15T00:34:34.232Z,7.79
2024-01-15T00:37:00.856Z,7.75
2024-01-15T00:39:27.598Z,7.84
2024-01-15T00:41:54.168Z,7.76
2024-01-15T00:44:20.891Z,7.56
2024-01-15T00:46:47.522Z,7.77
2024-01-15T00:49:15.037Z,7.81
2024-01-15T00:51:42.077Z,7.97
2024-01-15T00:54:08.766Z,7.81
2024-01-15T00:56:35.381Z,7.88
2024-01-15T00:59:02.026Z,7.70
2024-01-15T01:01:28.758Z,7.75
2024-01-15T01:03:55.699Z,7.66
2024-01-15T01:06:22.386Z,7.88
2024-01-15T01:08:48.924Z,7.99
2024-01-15T01:11:16.432Z,8.04
2024-01-15T01:13:43.541Z,8.08
2024-01-15T01:16:10.186Z,8.14
2024-01-15T01:18:39.684Z,8.15
2024-01-15T01:21:06.528Z,8.05
2024-01-15T01:23:33.094Z,8.26
2024-01-15T01:25:59.654Z,8.29
2024-01-15T01:28:26.274Z,8.25
2024-01-15T01:30:52.938Z,8.08
2024-01-15T01:33:19.746Z,8.01
2024-01-15T01:35:46.592Z,7.96
2024-01-15T01:38:13.743Z,7.68
2024-01-15T01:40:40.421Z,7.88
2024-01-15T01:43:07.061Z,7.54
2024-01-15T01:45:33.690Z,7.26
2024-01-15T01:48:02.439Z,7.71
2024-01-15T01:50:32.028Z,7.58
2024-01-15T01:52:58.911Z,7.22
2024-01-15T01:55:28.685Z,7.15
2024-01-15T01:57:56.921Z,7.21
2024-01-15T02:00:23.782Z,6.60
2024-01-15T02:02:50.728Z,6.67
2024-01-15T02:05:20.238Z,6.75
2024-01-15T02:07:47.058Z,6.94
2024-01-15T02:10:14.435Z,6.84
2024-01-15T02:12:41.135Z,6.78
2024-01-15T02:15:08.262Z,6.88
2024-01-15T02:17:34.820Z,6.61
2024-01-15T02:20:01.913Z,7.11
2024-01-15T02:22:28.641Z,7.38
2024-01-15T02:24:55.288Z,7.47
2024-01-15T02:27:22.383Z,7.50
2024-01-15T02:29:49.939Z,7.64
2024-01-15T02:32:16.493Z,7.53
2024-01-15T02:34:43.131Z,7.33
2024-01-15T02:37:09.777Z,7.27
2024-01-15T02:39:36.359Z,6.92
2024-01-15T02:42:02.901Z,7.03
2024-01-15T02:44:29.480Z,6.58
2024-01-15T02:46:55.987Z,6.50
2024-01-15T02:49:22.666Z,6.46
2024-01-15T02:51:49.304Z,6.56
2024-01-15T02:54:15.921Z,6.63
2024-01-15T02:56:42.447Z,6.69
2024-01-15T02:59:09.070Z,6.60
2024-01-15T03:01:35.622Z,6.60
2024-01-15T03:04:02.451Z,6.45
2024-01-15T03:06:29.085Z,6.32
2024-01-15T03:08:55.600Z,6.24
2024-01-15T03:11:22.054Z,6.36
2024-01-15T03:13:48.512Z,6.30
2024-01-15T03:16:14.994Z,6.43
2024-01-15T03:18:41.481Z,6.85
2024-01-15T03:21:08.035Z,6.45
2024-01-15T03:23:34.470Z,6.33
2024-01-15T03:26:01.211Z,6.35
2024-01-15T03:28:27.629Z,6.19
2024-01-15T03:30:54.174Z,5.98
2024-01-15T03:33:23.164Z,5.87
2024-01-15T03:35:49.680Z,5.92
2024-01-15T03:38:16.094Z,5.98
2024-01-15T03:40:42.744Z,6.12
2024-01-15T03:43:09.275Z,6.24
2024-01-15T03:45:38.888Z,6.38
2024-01-15T03:48:05.805Z,6.19
2024-01-15T03:50:32.440Z,5.74
2024-01-15T03:52:58.836Z,5.64
2024-01-15T03:55:25.290Z,5.77
2024-01-15T03:57:51.793Z,5.71
2024-01-15T04:00:18.434Z,5.77
2024-01-15T04:02:44.878Z,5.84
2024-01-15T04:05:11.492Z,5.80
2024-01-15T04:07:37.861Z,5.81
2024-01-15T04:10:04.923Z,5.60
2024-01-15T04:12:31.487Z,5.48
2024-01-15T04:14:58.069Z,5.81
2024-01-15T04:17:24.642Z,5.72
2024-01-15T04:19:51.373Z,5.71
2024-01-15T04:22:17.939Z,5.89
2024-01-15T04:24:44.757Z,5.99
2024-01-15T04:27:11.492Z,6.03
2024-01-15T04:29:41.900Z,5.98
2024-01-15T04:32:08.793Z,5.95
2024-01-15T04:34:35.648Z,5.94
2024-01-15T04:37:02.623Z,5.92
2024-01-15T04:39:29.681Z,5.94
2024-01-15T04:41:56.269Z,6.23
2024-01-15T04:44:23.332Z,6.20
2024-01-15T04:46:49.877Z,6.59
2024-01-15T04:49:16.615Z,6.41
2024-01-15T04:51:43.314Z,5.93
2024-01-15T04:54:09.800Z,6.01
2024-01-15T04:56:36.210Z,6.14
2024-01-15T04:59:02.604Z,6.29
2024-01-15T05:01:35.510Z,6.46
2024-01-15T05:04:02.210Z,6.89
2024-01-15T05:06:28.821Z,6.63
2024-01-15T05:08:55.309Z,6.38
2024-01-15T05:11:21.734Z,6.44
2024-01-15T05:13:48.203Z,6.56
2024-01-15T05:16:14.734Z,6.70
2024-01-15T05:18:41.266Z,6.69
2024-01-15T05:21:07.745Z,6.80
2024-01-15T05:23:35.745Z,7.17
2024-01-15T05:26:02.195Z,7.07
2024-01-15T05:28:28.782Z,6.55
2024-01-15T05:30:55.304Z,6.40
2024-01-15T05:33:22.572Z,6.51
2024-01-15T05:35:49.043Z,6.40
2024-01-15T05:38:15.400Z,6.39
2024-01-15T05:40:41.755Z,6.25
2024-01-15T05:43:08.138Z,6.31
2024-01-15T05:45:36.107Z,6.45
2024-01-15T05:48:02.854Z,6.42
2024-01-15T05:50:29.289Z,6.81
2024-01-15T05:52:55.842Z,6.63
2024-01-15T05:55:22.401Z,6.50
2024-01-15T05:57:49.114Z,6.55
2024-01-15T06:00:16.248Z,6.52
2024-01-15T06:02:42.799Z,6.70
2024-01-15T06:05:09.356Z,6.57
2024-01-15T06:07:36.382Z,6.70
2024-01-15T06:10:03.559Z,6.62
2024-01-15T06:12:30.119Z,6.67
2024-01-15T06:14:56.625Z,6.77
2024-01-15T06:17:23.230Z,6.53
2024-01-15T06:19:50.960Z,5.93
2024-01-15T06:22:17.747Z,6.03
2024-01-15T06:24:44.317Z,6.40
2024-01-15T06:27:10.917Z,6.72
2024-01-15T06:29:39.299Z,6.20
2024-01-15T06:32:06.111Z,6.50
2024-01-15T06:34:32.734Z,6.18
2024-01-15T06:36:59.443Z,6.23
2024-01-15T06:39:28.470Z,5.92
2024-01-15T06:41:55.102Z,6.36
2024-01-15T06:44:21.741Z,6.38
2024-01-15T06:46:49.154Z,6.45
2024-01-15T06:49:15.769Z,6.16
2024-01-15T06:51:42.269Z,6.22
2024-01-15T06:54:08.784Z,6.34
2024-01-15T06:56:35.449Z,6.21
2024-01-15T06:59:02.100Z,6.40
2024-01-15T07:01:28.623Z,6.81
2024-01-15T07:03:55.334Z,6.57
2024-01-15T07:06:21.814Z,6.78
2024-01-15T07:08:48.257Z,6.07
2024-01-15T07:11:14.768Z,6.65
2024-01-15T07:13:41.200Z,6.35
2024-01-15T07:16:07.658Z,6.15
2024-01-15T07:18:34.269Z,6.14
2024-01-15T07:21:00.776Z,6.40
2024-01-15T07:23:29.825Z,6.68
2024-01-15T07:25:57.557Z,6.68
2024-01-15T07:28:24.107Z,6.57
2024-01-15T07:30:50.611Z,6.32
2024-01-15T07:33:17.221Z,6.53
2024-01-15T07:35:43.778Z,6.35
2024-01-15T07:38:10.212Z,6.05
2024-01-15T07:40:36.708Z,6.23
2024-01-15T07:43:03.391Z,6.49
2024-01-15T07:45:30.048Z,6.59
2024-01-15T07:47:56.725Z,6.54
2024-01-15T07:50:23.540Z,6.46
2024-01-15T07:52:50.106Z,6.44
2024-01-15T07:55:16.812Z,6.58
2024-01-15T07:57:43.552Z,6.83
2024-01-15T08:00:12.294Z,6.50
2024-01-15T08:02:39.223Z,6.73
2024-01-15T08:05:06.412Z,6.51
2024-01-15T08:07:33.183Z,6.35
2024-01-15T08:10:04.060Z,6.53
2024-01-15T08:12:30.568Z,6.83
2024-01-15T08:14:57.144Z,6.82
2024-01-15T08:17:23.746Z,6.68
2024-01-15T08:19:50.759Z,6.67
2024-01-15T08:22:20.606Z,6.63
2024-01-15T08:24:47.286Z,6.88
2024-01-15T08:27:13.942Z,6.71
2024-01-15T08:29:40.750Z,6.71
2024-01-15T08:32:07.421Z,6.61
2024-01-15T08:34:36.395Z,6.52
2024-01-15T08:37:03.036Z,6.82
2024-01-15T08:39:29.762Z,7.11
2024-01-15T08:41:56.299Z,7.25
2024-01-15T08:44:22.864Z,7.18
2024-01-15T08:46:49.311Z,6.95
2024-01-15T08:49:15.924Z,6.96
2024-01-15T08:51:42.597Z,6.81
2024-01-15T08:54:09.093Z,6.81
2024-01-15T08:56:35.878Z,6.58
2024-01-15T08:59:02.314Z,6.34
2024-01-15T09:01:28.780Z,6.22
2024-01-15T09:03:55.574Z,6.34
2024-01-15T09:06:22.562Z,6.80
2024-01-15T09:08:49.336Z,6.71
2024-01-15T09:11:16.027Z,6.81
2024-01-15T09:13:42.733Z,6.63
2024-01-15T09:16:09.512Z,6.70
2024-01-15T09:18:36.607Z,6.97
2024-01-15T09:21:04.557Z,6.79
2024-01-15T09:23:33.464Z,6.88
2024-01-15T09:26:00.195Z,6.76
2024-01-15T09:28:26.795Z,6.43
2024-01-15T09:30:53.481Z,6.47
2024-01-15T09:33:20.399Z,6.39
2024-01-15T09:35:48.045Z,6.46
2024-01-15T09:38:15.435Z,6.66
2024-01-15T09:40:46.354Z,6.70
2024-01-15T09:43:13.733Z,6.49
2024-01-15T09:45:40.714Z,6.65
2024-01-15T09:48:07.856Z,6.67
2024-01-15T09:50:34.835Z,6.71
2024-01-15T09:53:02.553Z,6.50
2024-01-15T09:55:30.534Z,6.54
2024-01-15T09:57:59.034Z,6.39
2024-01-15T10:00:27.917Z,6.60
2024-01-15T10:02:54.632Z,6.56
2024-01-15T10:05:21.243Z,6.79
2024-01-15T10:07:49.232Z,6.81
2024-01-15T10:10:15.980Z,6.56
2024-01-15T10:12:43.787Z,6.67
2024-01-15T10:15:11.158Z,6.58
2024-01-15T10:17:39.025Z,6.49
2024-01-15T10:20:13.213Z,6.47
2024-01-15T10:22:45.022Z,6.38
2024-01-15T10:25:12.456Z,5.98
2024-01-15T10:27:39.109Z,5.65
2024-01-15T10:30:06.105Z,5.49
2024-01-15T10:32:33.591Z,5.55
2024-01-15T10:35:00.512Z,5.72
2024-01-15T10:37:29.356Z,6.08
2024-01-15T10:39:56.908Z,6.32
2024-01-15T10:42:23.749Z,6.22
2024-01-15T10:44:50.580Z,6.26
2024-01-15T10:47:17.534Z,6.23
2024-01-15T10:49:46.142Z,6.05
2024-01-15T10:52:13.022Z,5.89
2024-01-15T10:54:41.025Z,5.85
2024-01-15T10:57:08.385Z,6.01
2024-01-15T10:59:35.640Z,6.12
2024-01-15T11:02:03.022Z,6.26
2024-01-15T11:04:33.326Z,6.60
2024-01-15T11:07:01.894Z,6.77
2024-01-15T11:09:28.806Z,6.57
2024-01-15T11:12:12.260Z,7.08
2024-01-15T11:14:43.480Z,7.13
2024-01-15T11:17:10.596Z,6.77
2024-01-15T11:19:45.246Z,6.39
2024-01-15T11:22:31.833Z,6.37
2024-01-15T11:25:03.555Z,6.35
2024-01-15T11:27:59.025Z,6.66
2024-01-15T11:30:27.346Z,6.63
2024-01-15T11:32:54.157Z,6.41
2024-01-15T11:35:20.931Z,6.66
2024-01-15T11:37:53.716Z,6.91
2024-01-15T11:40:36.745Z,6.94
2024-01-15T11:43:03.845Z,6.82
2024-01-15T11:45:32.253Z,6.69
2024-01-15T11:48:11.857Z,6.54
2024-01-15T11:50:42.193Z,6.62
2024-01-15T11:53:18.189Z,6.65
2024-01-15T11:55:46.534Z,6.54
2024-01-15T11:58:15.708Z,6.42
2024-01-15T12:00:46.150Z,6.33
2024-01-15T12:03:13.166Z,6.14
2024-01-15T12:05:40.980Z,6.40
2024-01-15T12:08:12.496Z,6.24
2024-01-15T12:10:40.922Z,6.31
2024-01-15T12:13:17.497Z,6.30
2024-01-15T12:15:46.199Z,6.63
2024-01-15T12:18:17.607Z,6.45
2024-01-15T12:20:45.463Z,6.50
2024-01-15T12:23:15.372Z,6.41
2024-01-15T12:25:42.652Z,6.52
2024-01-15T12:28:12.329Z,6.64
2024-01-15T12:30:40.604Z,6.56
2024-01-15T12:33:10.437Z,6.38
2024-01-15T12:35:38.614Z,6.56
2024-01-15T12:38:05.949Z,6.40
2024-01-15T12:40:34.564Z,6.68
2024-01-15T12:43:02.008Z,6.34
2024-01-15T12:45:31.836Z,6.31
2024-01-15T12:48:01.648Z,6.38
2024-01-15T12:50:28.477Z,6.11
2024-01-15T12:52:55.092Z,6.16
2024-01-15T12:55:21.644Z,6.18
2024-01-15T12:57:48.186Z,6.67
2024-01-15T13:00:15.540Z,6.54
2024-01-15T13:02:45.268Z,6.74
2024-01-15T13:05:14.330Z,7.10
2024-01-15T13:07:42.004Z,6.81
2024-01-15T13:10:09.106Z,6.61
2024-01-15T13:12:36.354Z,6.60
2024-01-15T13:15:03.149Z,6.71
2024-01-15T13:17:31.748Z,6.89
2024-01-15T13:19:58.651Z,6.64
2024-01-15T13:22:25.966Z,6.77
2024-01-15T13:24:52.664Z,6.47
2024-01-15T13:27:19.262Z,6.48
2024-01-15T13:29:45.813Z,6.63
2024-01-15T13:32:23.555Z,6.66
2024-01-15T13:34:50.277Z,6.47
2024-01-15T13:37:17.273Z,6.35
2024-01-15T13:39:44.039Z,6.38
2024-01-15T13:42:10.735Z,6.76
2024-01-15T13:44:37.275Z,6.69
2024-01-15T13:47:04.378Z,6.84
2024-01-15T13:49:30.928Z,6.77
2024-01-15T13:51:57.517Z,7.29
2024-01-15T13:54:34.081Z,7.08
2024-01-15T13:57:08.380Z,7.29
2024-01-15T13:59:35.023Z,7.22
2024-01-15T14:02:01.711Z,7.81
2024-01-15T14:04:28.399Z,8.13
2024-01-15T14:06:55.177Z,8.42
2024-01-15T14:09:21.811Z,8.82
2024-01-15T14:11:49.311Z,8.69
2024-01-15T14:14:15.965Z,8.97
2024-01-15T14:16:43.500Z,9.00
2024-01-15T14:19:10.224Z,9.11
2024-01-15T14:21:40.274Z,9.06
2024-01-15T14:24:08.634Z,9.24
2024-01-15T14:26:35.668Z,9.28
2024-01-15T14:29:06.346Z,9.46
2024-01-15T14:31:33.302Z,9.26
2024-01-15T14:34:00.423Z,9.51
2024-01-15T14:36:27.051Z,9.59
2024-01-15T14:38:53.708Z,9.53
2024-01-15T14:41:20.412Z,9.46
2024-01-15T14:43:46.966Z,9.88
2024-01-15T14:46:16.065Z,9.45
2024-01-15T14:48:42.863Z,9.21
2024-01-15T14:51:09.902Z,8.94
2024-01-15T14:53:37.688Z,9.11
2024-01-15T14:56:04.348Z,9.29
2024-01-15T14:58:30.976Z,9.51
2024-01-15T15:00:57.928Z,9.80
2024-01-15T15:03:26.069Z,9.40
2024-01-15T15:05:52.861Z,9.23
2024-01-15T15:08:19.559Z,9.32
2024-01-15T15:10:48.410Z,9.23
2024-01-15T15:13:15.374Z,9.00
2024-01-15T15:15:43.616Z,9.21
2024-01-15T15:18:10.571Z,9.04
2024-01-15T15:20:37.709Z,8.54
2024-01-15T15:23:04.643Z,8.01
2024-01-15T15:25:33.421Z,7.95
2024-01-15T15:28:00.783Z,7.47
2024-01-15T15:30:27.980Z,7.29
2024-01-15T15:32:55.030Z,7.28
2024-01-15T15:35:24.696Z,6.78
2024-01-15T15:37:51.620Z,6.81
2024-01-15T15:40:18.565Z,6.55
2024-01-15T15:42:45.344Z,5.86
2024-01-15T15:45:14.103Z,5.89
2024-01-15T15:47:42.613Z,5.85
2024-01-15T15:50:09.911Z,5.76
2024-01-15T15:52:37.332Z,5.50
2024-01-15T15:55:04.585Z,5.62
2024-01-15T15:57:33.587Z,5.34
2024-01-15T16:00:00.684Z,5.19
2024-01-15T16:02:27.487Z,5.43
2024-01-15T16:04:54.298Z,5.15
2024-01-15T16:07:21.191Z,5.08
2024-01-15T16:09:47.955Z,4.90
2024-01-15T16:12:14.634Z,4.78
2024-01-15T16:14:41.341Z,4.91
2024-01-15T16:23:14.515Z,4.88
2024-01-15T16:23:27.881Z,5.01
2024-01-15T16:23:43.577Z,4.88
2024-01-15T16:25:31.961Z,4.70
2024-01-15T16:27:59.163Z,4.63
2024-01-15T16:30:38.205Z,4.42
2024-01-15T16:33:11.049Z,4.49
2024-01-15T16:35:42.272Z,4.29
2024-01-15T16:38:09.087Z,4.19
2024-01-15T16:40:37.102Z,4.05
2024-01-15T16:43:04.439Z,4.12
2024-01-15T16:45:31.332Z,4.06
2024-01-15T16:47:58.094Z,4.22
2024-01-15T16:50:24.834Z,4.28
2024-01-15T16:52:51.631Z,4.48
2024-01-15T16:55:18.441Z,4.43
2024-01-15T16:57:47.268Z,4.43
2024-01-15T17:00:14.272Z,4.33
2024-01-15T17:02:40.894Z,4.21
2024-01-15T17:05:07.751Z,4.30
2024-01-15T17:07:34.457Z,4.32
2024-01-15T17:10:00.935Z,4.22
2024-01-15T17:12:27.449Z,4.17
2024-01-15T17:14:54.026Z,4.43
2024-01-15T17:17:20.707Z,4.71
2024-01-15T17:19:47.298Z,4.95
2024-01-15T17:22:13.845Z,5.18
2024-01-15T17:24:40.616Z,5.17
2024-01-15T17:27:07.151Z,5.76
2024-01-15T17:29:35.749Z,5.51
2024-01-15T17:32:02.434Z,5.39
2024-01-15T17:34:29.320Z,5.40
2024-01-15T17:36:56.292Z,5.57
2024-01-15T17:39:22.949Z,5.90
2024-01-15T17:41:49.657Z,6.04
2024-01-15T17:44:16.540Z,5.95
2024-01-15T17:46:43.516Z,5.88
2024-01-15T17:49:10.690Z,6.04
2024-01-15T17:51:37.474Z,5.85
2024-01-15T17:54:04.113Z,5.99
2024-01-15T17:56:30.952Z,6.14
2024-01-15T17:58:57.507Z,5.90
2024-01-15T18:01:24.174Z,6.02
2024-01-15T18:03:51.687Z,6.16
2024-01-15T18:06:18.700Z,6.06
2024-01-15T18:08:45.651Z,6.43
2024-01-15T18:11:18.474Z,6.50
2024-01-15T18:13:44.978Z,6.61
2024-01-15T18:16:14.178Z,6.43
2024-01-15T18:18:43.533Z,6.30
2024-01-15T18:21:10.164Z,6.69
2024-01-15T18:23:37.148Z,6.64
2024-01-15T18:26:05.670Z,6.95
2024-01-15T18:28:32.221Z,6.87
2024-01-15T18:30:58.675Z,7.05
2024-01-15T18:33:25.387Z,7.11
2024-01-15T18:35:52.327Z,6.73
2024-01-15T18:38:19.081Z,6.59
2024-01-15T18:40:45.653Z,6.38
2024-01-15T18:43:12.202Z,5.78
2024-01-15T18:45:38.828Z,5.69
2024-01-15T18:48:05.804Z,5.82
2024-01-15T18:50:32.687Z,5.85
2024-01-15T18:52:59.497Z,5.68
2024-01-15T18:55:26.095Z,5.34
2024-01-15T18:57:52.730Z,5.38
2024-01-15T19:00:19.704Z,5.67
2024-01-15T19:02:46.441Z,5.59
2024-01-15T19:05:13.197Z,5.40
2024-01-15T19:07:40.045Z,5.41
2024-01-15T19:10:07.925Z,5.35
2024-01-15T19:12:39.131Z,5.64
2024-01-15T19:15:06.706Z,5.71
2024-01-15T19:17:33.502Z,5.65
2024-01-15T19:20:01.469Z,5.59
2024-01-15T19:22:28.103Z,5.44
2024-01-15T19:24:54.691Z,5.55
2024-01-15T19:27:21.305Z,5.39
2024-01-15T19:29:47.817Z,5.57
2024-01-15T19:32:14.613Z,5.60
2024-01-15T19:34:43.770Z,5.60
2024-01-15T19:37:10.329Z,5.43
2024-01-15T19:39:36.856Z,5.23
2024-01-15T19:42:03.397Z,5.52
2024-01-15T19:44:30.204Z,5.39
2024-01-15T19:46:56.803Z,5.53
2024-01-15T19:49:23.312Z,5.67
2024-01-15T19:51:49.910Z,5.31
2024-01-15T19:54:18.391Z,5.28
2024-01-15T19:56:44.946Z,5.15
2024-01-15T19:59:11.902Z,5.18
2024-01-15T20:01:38.403Z,5.44
2024-01-15T20:04:05.247Z,5.40
2024-01-15T20:06:31.923Z,5.21
2024-01-15T20:08:58.400Z,5.18
2024-01-15T20:11:24.891Z,5.27
2024-01-15T20:13:51.470Z,5.34
2024-01-15T20:16:17.920Z,5.75
2024-01-15T20:18:44.793Z,5.99
2024-01-15T20:21:11.910Z,6.01
2024-01-15T20:23:46.661Z,5.41
2024-01-15T20:26:21.581Z,5.57
2024-01-15T20:28:48.247Z,5.90
2024-01-15T20:31:15.006Z,6.07
2024-01-15T20:33:42.173Z,6.24
2024-01-15T20:36:09.375Z,5.52
2024-01-15T20:38:36.765Z,5.39
2024-01-15T20:41:03.462Z,5.84
2024-01-15T20:43:30.220Z,5.85
2024-01-15T20:45:56.780Z,5.64
2024-01-15T20:48:23.512Z,5.68
2024-01-15T20:50:50.510Z,5.71
2024-01-15T20:53:17.169Z,5.85
2024-01-15T20:55:43.929Z,6.19
2024-01-15T20:58:10.818Z,6.30
2024-01-15T21:00:37.580Z,6.51
2024-01-15T21:03:04.404Z,6.67
2024-01-15T21:05:31.104Z,6.62
2024-01-15T21:07:57.601Z,6.36
2024-01-15T21:10:24.150Z,6.59
2024-01-15T21:12:50.789Z,6.33
2024-01-15T21:15:17.714Z,6.59
2024-01-15T21:17:45.301Z,6.79
2024-01-15T21:20:13.538Z,6.84
2024-01-15T21:22:40.169Z,6.75
2024-01-15T21:25:06.841Z,6.66
2024-01-15T21:27:33.700Z,6.65
2024-01-15T21:30:00.329Z,6.85
2024-01-15T21:32:26.924Z,6.84
2024-01-15T21:34:53.517Z,6.74
2024-01-15T21:37:20.025Z,6.53
2024-01-15T21:39:46.603Z,6.49
2024-01-15T21:42:16.311Z,6.34
2024-01-15T21:44:43.433Z,6.29
2024-01-15T21:47:10.090Z,5.87
2024-01-15T21:49:36.615Z,5.89
2024-01-15T21:52:03.362Z,5.91
2024-01-15T21:54:29.914Z,5.64
2024-01-15T21:56:56.672Z,5.45
2024-01-15T21:59:23.680Z,5.55
2024-01-15T22:01:50.399Z,5.57
2024-01-15T22:04:17.113Z,5.47
2024-01-15T22:06:43.873Z,5.09
2024-01-15T22:09:10.555Z,5.04
2024-01-15T22:11:37.168Z,5.07
2024-01-15T22:14:03.720Z,5.12
2024-01-15T22:16:30.386Z,5.25
2024-01-15T22:19:02.696Z,5.22
2024-01-15T22:21:29.691Z,5.04
2024-01-15T22:23:56.174Z,5.16
2024-01-15T22:26:22.710Z,5.02
2024-01-15T22:28:49.278Z,5.08
2024-01-15T22:31:15.781Z,4.79
2024-01-15T22:33:43.504Z,4.80
2024-01-15T22:36:10.027Z,4.69
2024-01-15T22:38:36.532Z,4.65
2024-01-15T22:41:03.073Z,4.63
2024-01-15T22:43:29.496Z,5.04
2024-01-15T22:45:56.072Z,5.00
2024-01-15T22:48:22.680Z,4.74
2024-01-15T22:50:49.167Z,4.55
2024-01-15T22:53:15.652Z,4.78
2024-01-15T22:55:42.176Z,4.89
2024-01-15T22:58:08.718Z,4.44
2024-01-15T23:00:35.299Z,4.83
2024-01-15T23:03:01.870Z,4.70
2024-01-15T23:05:28.444Z,4.61
2024-01-15T23:07:55.099Z,4.84
2024-01-15T23:10:21.784Z,4.95
2024-01-15T23:12:48.318Z,5.17
2024-01-15T23:15:15.018Z,5.20
2024-01-15T23:17:42.742Z,5.16
2024-01-15T23:20:10.068Z,5.37
2024-01-15T23:22:36.875Z,5.38
2024-01-15T23:25:03.974Z,5.16
2024-01-15T23:27:30.552Z,5.27
2024-01-15T23:29:57.155Z,5.31
2024-01-15T23:32:24.090Z,5.54
2024-01-15T23:34:50.669Z,5.75
2024-01-15T23:37:17.301Z,5.80
2024-01-15T23:39:54.197Z,5.54
2024-01-15T23:42:22.194Z,5.53
2024-01-15T23:44:51.871Z,5.47
2024-01-15T23:47:18.669Z,5.21
2024-01-15T23:49:45.373Z,5.58
2024-01-15T23:52:11.793Z,5.44
2024-01-15T23:54:38.396Z,5.55
2024-01-15T23:57:05.718Z,5.87
2024-01-15T23:59:32.338Z,5.80
